createdAt,value
2023-05-25T00:03:28.792Z,21.40
2023-05-25T00:05:57.969Z,21.30
2023-05-25T00:08:27.785Z,21.30
2023-05-25T00:11:07.652Z,21.30
2023-05-25T00:13:36.246Z,21.30
2023-05-25T00:16:04.787Z,21.20
2023-05-25T00:18:33.137Z,21.20
2023-05-25T00:21:05.939Z,21.20
2023-05-25T00:23:35.294Z,21.20
2023-05-25T00:26:04.142Z,21.20
2023-05-25T00:28:32.236Z,21.10
2023-05-25T00:31:00.499Z,21.10
2023-05-25T00:33:28.494Z,21.10
2023-05-25T00:35:57.466Z,21.10
2023-05-25T00:38:25.719Z,21.00
2023-05-25T00:40:57.622Z,21.00
2023-05-25T00:43:25.652Z,21.00
2023-05-25T00:45:53.771Z,21.00
2023-05-25T00:48:22.266Z,20.90
2023-05-25T00:50:50.262Z,20.90
2023-05-25T00:53:18.721Z,20.90
2023-05-25T00:55:50.662Z,20.90
2023-05-25T00:58:22.796Z,20.90
2023-05-25T01:00:51.260Z,20.80
2023-05-25T01:03:22.028Z,20.80
2023-05-25T01:05:50.626Z,20.80
2023-05-25T01:08:18.835Z,20.80
2023-05-25T01:10:50.427Z,20.70
2023-05-25T01:17:13.529Z,20.80
2023-05-25T01:19:41.513Z,20.70
2023-05-25T01:22:14.114Z,20.60
2023-05-25T01:24:44.230Z,20.60
2023-05-25T01:27:15.750Z,20.60
2023-05-25T01:29:45.246Z,20.60
2023-05-25T01:32:14.433Z,20.60
2023-05-25T01:34:42.887Z,20.50
2023-05-25T01:37:13.492Z,20.50
2023-05-25T01:39:41.623Z,20.50
2023-05-25T01:42:09.623Z,20.50
2023-05-25T01:44:37.821Z,20.50
2023-05-25T01:47:09.080Z,20.50
2023-05-25T01:49:41.596Z,20.50
2023-05-25T01:52:13.450Z,20.40
2023-05-25T01:54:43.653Z,20.40
2023-05-25T01:57:13.688Z,20.40
2023-05-25T01:59:41.842Z,20.40
2023-05-25T02:02:09.771Z,20.40
2023-05-25T02:04:37.718Z,20.30
2023-05-25T02:07:06.495Z,20.30
2023-05-25T02:09:35.743Z,20.30
2023-05-25T02:12:03.686Z,20.30
2023-05-25T02:14:32.146Z,20.30
2023-05-25T02:17:01.988Z,20.30
2023-05-25T02:19:30.103Z,20.20
2023-05-25T02:21:58.358Z,20.20
2023-05-25T02:24:26.540Z,20.20
2023-05-25T02:26:55.928Z,20.20
2023-05-25T02:29:23.902Z,20.20
2023-05-25T02:31:51.860Z,20.20
2023-05-25T02:34:19.822Z,20.10
2023-05-25T02:36:48.254Z,20.10
2023-05-25T02:39:16.266Z,20.10
2023-05-25T02:41:44.588Z,20.10
2023-05-25T02:44:13.925Z,20.10
2023-05-25T02:46:42.247Z,20.00
2023-05-25T02:49:10.142Z,20.00
2023-05-25T02:51:38.128Z,20.10
2023-05-25T02:54:06.857Z,20.00
2023-05-25T03:03:08.272Z,20.00
2023-05-25T03:05:36.333Z,19.90
2023-05-25T03:08:04.222Z,19.90
2023-05-25T03:10:32.136Z,19.90
2023-05-25T03:13:00.104Z,19.90
2023-05-25T03:15:27.994Z,19.90
2023-05-25T03:18:01.078Z,19.80
2023-05-25T03:20:30.984Z,19.80
2023-05-25T03:22:58.888Z,19.80
2023-05-25T03:25:27.068Z,19.80
2023-05-25T03:27:55.037Z,19.80
2023-05-25T03:30:23.699Z,19.80
2023-05-25T03:32:52.409Z,19.80
2023-05-25T03:35:20.908Z,19.80
2023-05-25T03:37:50.194Z,19.80
2023-05-25T03:40:18.090Z,19.80
2023-05-25T03:42:46.546Z,19.70
2023-05-25T03:45:14.427Z,19.70
2023-05-25T03:47:42.384Z,19.70
2023-05-25T03:50:11.496Z,19.70
2023-05-25T03:52:39.333Z,19.70
2023-05-25T03:55:09.321Z,19.70
2023-05-25T03:57:37.346Z,19.70
2023-05-25T04:00:06.271Z,19.70
2023-05-25T04:02:34.808Z,19.70
2023-05-25T04:05:03.268Z,19.70
2023-05-25T04:07:31.201Z,19.70
2023-05-25T04:10:00.288Z,19.70
2023-05-25T04:12:30.083Z,19.70
2023-05-25T04:14:57.938Z,19.70
2023-05-25T04:17:25.965Z,19.70
2023-05-25T04:19:54.068Z,19.70
2023-05-25T04:22:22.110Z,19.70
2023-05-25T04:24:50.143Z,19.70
2023-05-25T04:27:20.359Z,19.80
2023-05-25T04:29:50.600Z,19.80
2023-05-25T04:32:18.917Z,19.70
2023-05-25T04:34:48.378Z,19.70
2023-05-25T04:37:17.301Z,19.80
2023-05-25T04:39:45.560Z,19.80
2023-05-25T04:42:13.880Z,19.80
2023-05-25T04:44:42.064Z,19.80
2023-05-25T04:47:12.372Z,19.80
2023-05-25T04:49:40.808Z,19.80
2023-05-25T04:52:09.520Z,19.80
2023-05-25T04:54:38.335Z,19.80
2023-05-25T04:57:07.039Z,19.80
2023-05-25T04:59:35.293Z,19.80
2023-05-25T05:02:03.578Z,19.90
2023-05-25T05:04:33.527Z,19.90
2023-05-25T05:07:01.999Z,19.90
2023-05-25T05:09:30.081Z,19.80
2023-05-25T05:11:58.149Z,19.90
2023-05-25T05:14:26.143Z,19.90
2023-05-25T05:16:54.227Z,19.90
2023-05-25T05:19:22.989Z,19.90
2023-05-25T05:21:52.416Z,19.90
2023-05-25T05:24:20.675Z,20.00
2023-05-25T05:29:23.681Z,20.10
2023-05-25T05:31:51.724Z,20.20
2023-05-25T05:34:19.699Z,20.20
2023-05-25T05:36:57.476Z,20.30
2023-05-25T05:39:28.388Z,20.30
2023-05-25T05:41:57.260Z,20.30
2023-05-25T05:44:28.770Z,20.30
2023-05-25T05:47:01.402Z,20.40
2023-05-25T05:49:37.879Z,20.30
2023-05-25T05:52:06.772Z,20.40
2023-05-25T05:54:36.591Z,20.40
2023-05-25T05:57:04.948Z,20.40
2023-05-25T05:59:33.243Z,20.40
2023-05-25T06:02:01.383Z,20.40
2023-05-25T06:04:29.753Z,20.40
2023-05-25T06:06:59.892Z,20.50
2023-05-25T06:09:28.295Z,20.50
2023-05-25T06:11:57.719Z,20.60
2023-05-25T06:14:28.126Z,20.70
2023-05-25T06:16:56.946Z,20.70
2023-05-25T06:19:25.076Z,20.70
2023-05-25T06:21:53.545Z,20.80
2023-05-25T06:28:03.882Z,20.90
2023-05-25T06:30:31.961Z,20.90
2023-05-25T06:32:59.976Z,20.90
2023-05-25T06:35:29.505Z,20.90
2023-05-25T06:37:57.708Z,21.00
2023-05-25T06:40:25.784Z,21.00
2023-05-25T06:42:54.053Z,21.10
2023-05-25T06:45:25.684Z,21.20
2023-05-25T06:47:53.786Z,21.20
2023-05-25T06:50:24.889Z,21.30
2023-05-25T06:56:21.905Z,21.40
2023-05-25T06:58:50.147Z,21.50
2023-05-25T07:01:20.116Z,21.50
2023-05-25T07:03:50.216Z,21.70
2023-05-25T07:06:18.729Z,21.80
2023-05-25T07:08:55.382Z,21.90
2023-05-25T07:11:26.673Z,21.90
2023-05-25T07:13:55.570Z,22.00
2023-05-25T07:16:26.953Z,22.10
2023-05-25T07:18:56.728Z,22.20
2023-05-25T07:21:28.851Z,22.20
2023-05-25T07:23:57.864Z,22.20
2023-05-25T07:26:27.380Z,22.20
2023-05-25T07:28:55.628Z,22.30
2023-05-25T07:31:25.280Z,22.30
2023-05-25T07:33:55.461Z,22.30
2023-05-25T07:36:24.982Z,22.30
2023-05-25T07:38:53.270Z,22.30
2023-05-25T07:41:21.879Z,22.40
2023-05-25T07:43:49.966Z,22.50
2023-05-25T07:46:21.076Z,22.50
2023-05-25T07:48:50.485Z,22.50
2023-05-25T07:51:19.031Z,22.60
2023-05-25T07:53:47.179Z,22.70
2023-05-25T07:56:15.272Z,22.90
2023-05-25T07:58:43.298Z,23.10
2023-05-25T08:01:11.381Z,23.20
2023-05-25T08:03:49.203Z,23.40
2023-05-25T08:06:19.639Z,23.40
2023-05-25T08:08:47.729Z,23.40
2023-05-25T08:11:35.819Z,23.50
2023-05-25T08:14:11.670Z,23.50
2023-05-25T08:16:46.060Z,23.60
2023-05-25T08:19:24.396Z,23.70
2023-05-25T08:21:54.026Z,23.90
2023-05-25T08:24:25.140Z,23.90
2023-05-25T08:27:01.819Z,23.90
2023-05-25T08:29:33.270Z,23.80
2023-05-25T08:32:14.034Z,23.80
2023-05-25T08:34:45.825Z,23.80
2023-05-25T08:37:16.244Z,23.80
2023-05-25T08:39:44.424Z,23.90
2023-05-25T08:42:12.778Z,23.90
2023-05-25T08:44:43.179Z,23.90
2023-05-25T08:47:11.515Z,23.90
2023-05-25T08:49:41.844Z,23.90
2023-05-25T08:52:11.244Z,23.90
2023-05-25T08:54:41.136Z,23.90
2023-05-25T08:57:12.503Z,23.90
2023-05-25T08:59:48.844Z,24.00
2023-05-25T09:02:35.246Z,24.10
2023-05-25T09:05:06.909Z,24.30
2023-05-25T09:07:44.604Z,24.50
2023-05-25T09:10:18.056Z,24.70
2023-05-25T09:12:47.167Z,24.80
2023-05-25T09:15:18.851Z,24.80
2023-05-25T09:17:48.216Z,24.80
2023-05-25T09:20:19.844Z,24.80
2023-05-25T09:22:51.181Z,24.90
2023-05-25T09:25:24.171Z,25.00
2023-05-25T09:28:00.247Z,25.20
2023-05-25T09:30:36.982Z,25.30
2023-05-25T09:33:36.870Z,25.40
2023-05-25T09:36:14.279Z,25.40
2023-05-25T09:39:16.407Z,25.40
2023-05-25T09:42:03.251Z,25.40
2023-05-25T09:45:58.732Z,25.40
2023-05-25T09:48:51.489Z,25.40
2023-05-25T09:58:23.077Z,25.30
2023-05-25T10:01:33.084Z,25.50
2023-05-25T10:04:43.860Z,25.60
2023-05-25T10:07:31.709Z,25.40
2023-05-25T10:10:34.733Z,25.40
2023-05-25T10:14:17.839Z,25.40
2023-05-25T10:24:30.235Z,25.40
2023-05-25T10:27:34.504Z,25.60
2023-05-25T10:31:04.405Z,25.60
2023-05-25T10:50:58.282Z,25.90
2023-05-25T10:56:31.456Z,26.50
2023-05-25T10:59:30.483Z,26.60
2023-05-25T11:02:03.171Z,26.60
2023-05-25T11:04:49.645Z,26.50
2023-05-25T11:07:29.782Z,26.60
2023-05-25T11:10:24.858Z,26.60
2023-05-25T11:12:56.233Z,26.60
2023-05-25T11:15:42.714Z,26.70
2023-05-25T11:18:18.241Z,27.20
2023-05-25T11:20:49.973Z,27.90
2023-05-25T11:31:24.223Z,28.60
2023-05-25T11:34:05.808Z,28.50
2023-05-25T11:37:04.544Z,28.70
2023-05-25T11:39:45.819Z,28.70
2023-05-25T11:51:19.768Z,31.30
2023-05-25T11:57:26.449Z,32.20
2023-05-25T12:00:18.837Z,31.60
2023-05-25T12:03:59.162Z,31.60
2023-05-25T12:07:20.928Z,31.20
2023-05-25T12:11:21.682Z,31.20
2023-05-25T12:14:16.100Z,32.50
2023-05-25T12:17:01.126Z,33.70
2023-05-25T12:19:34.257Z,34.20
2023-05-25T12:22:38.559Z,33.50
2023-05-25T12:26:05.349Z,33.50
2023-05-25T12:31:54.642Z,32.30
2023-05-25T12:34:22.679Z,32.40
2023-05-25T12:36:55.354Z,33.30
2023-05-25T12:39:39.900Z,33.40
2023-05-25T12:45:31.212Z,33.30
2023-05-25T12:48:00.808Z,34.10
2023-05-25T12:50:31.826Z,34.60
2023-05-25T12:53:02.986Z,33.90
2023-05-25T12:55:38.249Z,33.40
2023-05-25T12:58:09.597Z,33.80
2023-05-25T13:00:43.968Z,34.20
2023-05-25T13:03:20.925Z,34.50
2023-05-25T13:06:02.490Z,34.60
2023-05-25T13:08:38.362Z,34.60
2023-05-25T13:11:15.028Z,34.30
2023-05-25T13:13:50.714Z,34.10
2023-05-25T13:16:19.168Z,34.10
2023-05-25T13:18:49.623Z,34.10
2023-05-25T13:21:20.187Z,33.90
2023-05-25T13:26:37.708Z,33.80
2023-05-25T13:29:09.192Z,33.70
2023-05-25T13:31:37.454Z,33.80
2023-05-25T13:34:06.084Z,33.80
2023-05-25T13:36:34.770Z,33.70
2023-05-25T13:39:05.516Z,33.60
2023-05-25T13:41:37.588Z,33.40
2023-05-25T13:44:05.609Z,33.50
2023-05-25T13:46:36.007Z,33.50
2023-05-25T13:49:06.253Z,33.60
2023-05-25T13:51:35.914Z,33.50
2023-05-25T13:54:16.664Z,33.50
2023-05-25T13:56:57.686Z,33.60
2023-05-25T13:59:46.533Z,33.60
2023-05-25T14:02:19.905Z,33.40
2023-05-25T14:04:48.672Z,33.40
2023-05-25T14:07:16.826Z,33.40
2023-05-25T14:09:44.837Z,33.30
2023-05-25T14:12:14.667Z,33.20
2023-05-25T14:14:42.714Z,33.10
2023-05-25T14:17:11.298Z,33.10
2023-05-25T14:19:39.430Z,33.10
2023-05-25T14:22:13.225Z,33.00
2023-05-25T14:24:42.939Z,32.90
2023-05-25T14:27:10.985Z,32.10
2023-05-25T14:29:40.563Z,31.60
2023-05-25T14:32:08.682Z,31.20
2023-05-25T14:34:36.734Z,30.80
2023-05-25T14:37:05.115Z,30.60
2023-05-25T14:39:33.258Z,30.40
2023-05-25T14:42:02.542Z,30.20
2023-05-25T14:44:30.730Z,30.10
2023-05-25T14:47:00.485Z,29.80
2023-05-25T14:49:28.550Z,29.70
2023-05-25T14:51:56.525Z,29.50
2023-05-25T14:54:25.164Z,29.40
2023-05-25T14:56:53.135Z,29.20
2023-05-25T14:59:21.026Z,29.10
2023-05-25T15:01:48.923Z,29.00
2023-05-25T15:04:18.559Z,28.90
2023-05-25T15:06:46.707Z,28.80
2023-05-25T15:09:16.292Z,28.70
2023-05-25T15:11:44.281Z,28.70
2023-05-25T15:14:13.546Z,28.60
2023-05-25T15:16:41.591Z,28.50
2023-05-25T15:19:12.181Z,28.50
2023-05-25T15:21:42.766Z,28.40
2023-05-25T15:24:13.835Z,28.40
2023-05-25T15:26:41.775Z,28.30
2023-05-25T15:29:10.208Z,28.20
2023-05-25T15:31:38.542Z,28.20
2023-05-25T15:34:06.615Z,28.10
2023-05-25T15:36:34.568Z,28.10
2023-05-25T15:39:04.991Z,28.00
2023-05-25T15:41:33.017Z,28.00
2023-05-25T15:44:01.356Z,28.00
2023-05-25T15:46:29.290Z,27.90
2023-05-25T15:48:57.310Z,27.90
2023-05-25T15:51:25.253Z,27.90
2023-05-25T15:53:54.777Z,27.90
2023-05-25T15:56:24.712Z,27.80
2023-05-25T15:58:53.425Z,27.80
2023-05-25T16:01:22.086Z,27.80
2023-05-25T16:03:50.316Z,27.70
2023-05-25T16:06:18.482Z,27.70
2023-05-25T16:08:46.562Z,27.70
2023-05-25T16:11:15.065Z,27.70
2023-05-25T16:13:44.701Z,27.70
2023-05-25T16:16:12.803Z,27.60
2023-05-25T16:18:41.600Z,27.60
2023-05-25T16:21:10.038Z,27.60
2023-05-25T16:23:39.977Z,27.50
2023-05-25T16:26:10.094Z,27.50
2023-05-25T16:28:38.146Z,27.50
2023-05-25T16:31:07.659Z,27.50
2023-05-25T16:33:35.871Z,27.40
2023-05-25T16:36:03.837Z,27.40
2023-05-25T16:38:31.648Z,27.40
2023-05-25T16:40:59.452Z,27.40
2023-05-25T16:43:27.530Z,27.30
2023-05-25T16:45:56.087Z,27.30
2023-05-25T16:48:25.825Z,27.20
2023-05-25T16:50:53.882Z,27.20
2023-05-25T16:53:22.006Z,27.20
2023-05-25T16:55:50.158Z,27.10
2023-05-25T16:58:18.091Z,27.10
2023-05-25T17:00:46.582Z,27.10
2023-05-25T17:03:14.926Z,27.10
2023-05-25T17:05:44.750Z,27.10
2023-05-25T17:08:12.914Z,27.10
2023-05-25T17:10:41.049Z,27.10
2023-05-25T17:13:09.213Z,27.00
2023-05-25T17:15:37.253Z,27.00
2023-05-25T17:18:08.422Z,27.00
2023-05-25T17:20:36.649Z,27.00
2023-05-25T17:23:06.372Z,27.00
2023-05-25T17:25:34.501Z,27.00
2023-05-25T17:28:02.693Z,27.00
2023-05-25T17:30:30.957Z,27.00
2023-05-25T17:33:01.951Z,26.90
2023-05-25T17:35:30.418Z,27.00
2023-05-25T17:37:58.462Z,26.90
2023-05-25T17:40:27.721Z,26.90
2023-05-25T17:42:55.594Z,26.90
2023-05-25T17:45:23.866Z,26.90
2023-05-25T17:47:51.945Z,26.80
2023-05-25T17:50:19.985Z,26.80
2023-05-25T17:52:48.555Z,26.80
2023-05-25T17:55:16.633Z,26.80
2023-05-25T17:57:46.261Z,26.80
2023-05-25T18:00:15.497Z,26.80
2023-05-25T18:02:43.762Z,26.70
2023-05-25T18:05:11.847Z,26.70
2023-05-25T18:07:40.300Z,26.70
2023-05-25T18:10:09.581Z,26.60
2023-05-25T18:12:37.955Z,26.60
2023-05-25T18:15:08.940Z,26.60
2023-05-25T18:17:36.902Z,26.60
2023-05-25T18:20:05.125Z,26.60
2023-05-25T18:22:36.156Z,26.60
2023-05-25T18:25:04.332Z,26.50
2023-05-25T18:27:32.716Z,26.50
2023-05-25T18:30:00.748Z,26.50
2023-05-25T18:32:30.431Z,26.40
2023-05-25T18:34:58.553Z,26.40
2023-05-25T18:37:28.985Z,26.30
2023-05-25T18:39:57.042Z,26.30
2023-05-25T18:42:25.502Z,26.30
2023-05-25T18:44:53.543Z,26.30
2023-05-25T18:47:21.576Z,26.30
2023-05-25T18:49:51.723Z,26.20
2023-05-25T18:52:20.036Z,26.20
2023-05-25T18:54:49.304Z,26.20
2023-05-25T18:57:17.430Z,26.10
2023-05-25T18:59:45.836Z,26.10
2023-05-25T19:02:16.344Z,26.10
2023-05-25T19:04:44.868Z,26.00
2023-05-25T19:07:14.433Z,26.00
2023-05-25T19:09:42.957Z,26.00
2023-05-25T19:12:11.026Z,25.90
2023-05-25T19:14:42.668Z,25.90
2023-05-25T19:17:10.752Z,25.90
2023-05-25T19:19:39.223Z,25.90
2023-05-25T19:22:09.848Z,25.90
2023-05-25T19:24:42.685Z,25.80
2023-05-25T19:27:12.440Z,25.80
2023-05-25T19:29:40.920Z,25.70
2023-05-25T19:32:08.957Z,25.70
2023-05-25T19:34:37.467Z,25.70
2023-05-25T19:37:11.550Z,25.70
2023-05-25T19:39:41.589Z,25.60
2023-05-25T19:42:09.638Z,25.60
2023-05-25T19:44:40.495Z,25.60
2023-05-25T19:47:08.651Z,25.60
2023-05-25T19:49:37.411Z,25.60
2023-05-25T19:52:05.573Z,25.50
2023-05-25T19:54:33.427Z,25.50
2023-05-25T19:57:03.127Z,25.50
2023-05-25T19:59:31.695Z,25.40
2023-05-25T20:01:59.819Z,25.40
2023-05-25T20:04:27.916Z,25.40
2023-05-25T20:06:55.917Z,25.40
2023-05-25T20:09:30.091Z,25.40
2023-05-25T20:12:00.463Z,25.40
2023-05-25T20:14:30.672Z,25.40
2023-05-25T20:16:58.540Z,25.30
2023-05-25T20:19:26.915Z,25.30
2023-05-25T20:21:55.016Z,25.30
2023-05-25T20:24:23.643Z,25.30
2023-05-25T20:26:57.054Z,25.30
2023-05-25T20:29:25.252Z,25.30
2023-05-25T20:39:30.330Z,25.10
2023-05-25T20:41:58.796Z,25.10
2023-05-25T20:44:27.431Z,25.00
2023-05-25T20:46:55.601Z,25.00
2023-05-25T20:49:26.001Z,24.80
2023-05-25T20:51:54.610Z,24.80
2023-05-25T20:54:22.972Z,24.60
2023-05-25T20:56:53.293Z,24.60
2023-05-25T20:59:23.208Z,24.50
2023-05-25T21:01:51.670Z,24.40
2023-05-25T21:04:19.766Z,24.30
2023-05-25T21:06:48.242Z,24.30
2023-05-25T21:09:16.401Z,24.20
2023-05-25T21:11:44.686Z,24.10
2023-05-25T21:14:14.119Z,24.00
2023-05-25T21:16:42.290Z,24.00
2023-05-25T21:19:10.467Z,23.90
2023-05-25T21:21:44.190Z,23.90
2023-05-25T21:24:12.299Z,23.80
2023-05-25T21:26:43.729Z,23.80
2023-05-25T21:29:13.644Z,23.70
2023-05-25T21:31:42.097Z,23.70
2023-05-25T21:34:10.258Z,23.60
2023-05-25T21:36:38.399Z,23.60
2023-05-25T21:39:06.451Z,23.50
2023-05-25T21:41:34.484Z,23.50
2023-05-25T21:44:02.641Z,23.50
2023-05-25T21:46:32.160Z,23.40
2023-05-25T21:49:00.579Z,23.40
2023-05-25T21:51:30.238Z,23.30
2023-05-25T21:53:58.640Z,23.30
2023-05-25T21:56:27.877Z,23.30
2023-05-25T21:58:59.812Z,23.20
2023-05-25T22:01:28.671Z,23.20
2023-05-25T22:03:59.429Z,23.10
2023-05-25T22:06:32.461Z,23.10
2023-05-25T22:09:00.554Z,23.10
2023-05-25T22:11:30.684Z,23.10
2023-05-25T22:13:59.701Z,23.00
2023-05-25T22:16:27.828Z,23.00
2023-05-25T22:18:57.300Z,22.90
2023-05-25T22:21:25.319Z,22.90
2023-05-25T22:23:53.476Z,22.90
2023-05-25T22:26:23.403Z,22.80
2023-05-25T22:28:51.590Z,22.80
2023-05-25T22:31:19.843Z,22.80
2023-05-25T22:33:47.956Z,22.80
2023-05-25T22:36:17.546Z,22.70
2023-05-25T22:38:45.754Z,22.70
2023-05-25T22:41:14.069Z,22.60
2023-05-25T22:43:42.202Z,22.60
2023-05-25T22:46:10.830Z,22.60
2023-05-25T22:48:38.925Z,22.50
2023-05-25T22:51:07.154Z,22.50
2023-05-25T22:53:37.019Z,22.50
2023-05-25T22:56:05.066Z,22.50
2023-05-25T22:58:33.632Z,22.50
2023-05-25T23:01:01.663Z,22.40
2023-05-25T23:03:30.376Z,22.40
2023-05-25T23:05:58.486Z,22.40
2023-05-25T23:08:26.622Z,22.40
2023-05-25T23:10:56.182Z,22.30
2023-05-25T23:13:24.587Z,22.30
2023-05-25T23:15:55.445Z,22.20
2023-05-25T23:18:23.554Z,22.20
2023-05-25T23:20:51.732Z,22.20
2023-05-25T23:23:19.854Z,22.20
2023-05-25T23:25:47.998Z,22.10
2023-05-25T23:28:17.443Z,22.10
2023-05-25T23:30:45.710Z,22.10
2023-05-25T23:33:13.800Z,22.00
2023-05-25T23:35:41.852Z,22.00
2023-05-25T23:38:10.334Z,21.90
2023-05-25T23:40:38.384Z,21.90
2023-05-25T23:43:06.357Z,21.90
2023-05-25T23:45:36.162Z,21.80
2023-05-25T23:48:04.251Z,21.80
2023-05-25T23:50:32.408Z,21.80
2023-05-25T23:53:00.495Z,21.80
2023-05-25T23:55:28.549Z,21.70
2023-05-25T23:57:56.592Z,21.70
